Terminal Aerodrome Forecast
Issued by NWS Albany, NY

Home | Current Version | Previous Version | Text Only | Print | Product List | Glossary On
Versions: 1 2 3 4 5 6 7 8 9 10 11 12 13 14 15 16 17 18 19 20 21 22 23 24 25
802
FTUS41 KALY 111555 AAB
TAFALB
TAF AMD
KALB 111555Z 1116/1212 29015G27KT P6SM VCSH BKN045 BKN070
      TEMPO 1116/1118 2SM -SHSN BLSN BKN025 OVC035
     FM120200 30012KT P6SM SCT045
     FM120700 29005KT P6SM SKC=

USA.gov is the U.S. government's official web portal to all federal, state and local government web resources and services.